createdAt,value
2019-04-10T00:00:49.273Z,9.89
2019-04-10T00:01:49.272Z,9.78
2019-04-10T00:02:50.102Z,9.84
2019-04-10T00:03:50.278Z,9.81
2019-04-10T00:04:49.462Z,9.81
2019-04-10T00:05:50.012Z,9.83
2019-04-10T00:06:50.062Z,9.79
2019-04-10T00:07:50.011Z,9.84
2019-04-10T00:08:49.174Z,9.87
2019-04-10T00:09:49.543Z,9.89
2019-04-10T00:10:49.150Z,9.81
2019-04-10T00:11:49.389Z,9.90
2019-04-10T00:12:49.768Z,9.89
2019-04-10T00:13:49.118Z,9.81
2019-04-10T00:14:49.115Z,9.83
2019-04-10T00:15:49.088Z,9.86
2019-04-10T00:16:49.082Z,9.79
2019-04-10T00:17:49.330Z,9.76
2019-04-10T00:18:49.059Z,9.76
2019-04-10T00:19:49.065Z,9.81
2019-04-10T00:20:49.225Z,9.76
2019-04-10T00:21:49.406Z,9.81
2019-04-10T00:22:49.039Z,9.76
2019-04-10T00:23:49.231Z,9.86
2019-04-10T00:24:48.994Z,9.76
2019-04-10T00:25:48.991Z,9.90
2019-04-10T00:26:49.916Z,9.90
2019-04-10T00:27:48.980Z,9.75
2019-04-10T00:28:49.749Z,9.83
2019-04-10T00:29:48.934Z,9.93
2019-04-10T00:30:49.373Z,9.89
2019-04-10T00:31:48.913Z,9.75
2019-04-10T00:32:49.082Z,9.81
2019-04-10T00:33:49.297Z,9.84
2019-04-10T00:34:49.728Z,9.83
2019-04-10T00:35:49.877Z,9.78
2019-04-10T00:36:49.077Z,9.83
2019-04-10T00:37:49.206Z,9.78
2019-04-10T00:38:48.856Z,9.79
2019-04-10T00:39:48.825Z,9.90
2019-04-10T00:40:49.870Z,9.87
2019-04-10T00:41:48.800Z,9.87
2019-04-10T00:42:49.535Z,9.84
2019-04-10T00:43:48.998Z,9.78
2019-04-10T00:44:48.776Z,9.72
2019-04-10T00:45:49.393Z,9.72
2019-04-10T00:46:48.757Z,9.81
2019-04-10T00:47:48.732Z,9.79
2019-04-10T00:48:48.743Z,9.71
2019-04-10T00:49:48.721Z,9.72
2019-04-10T00:50:48.779Z,9.75
2019-04-10T00:51:48.722Z,9.79
2019-04-10T00:52:48.678Z,9.74
2019-04-10T00:53:49.659Z,9.76
2019-04-10T00:54:48.970Z,9.74
2019-04-10T00:55:48.649Z,9.72
2019-04-10T00:56:48.635Z,9.75
2019-04-10T00:57:49.758Z,9.71
2019-04-10T00:58:48.631Z,9.71
2019-04-10T00:59:48.603Z,9.76
2019-04-10T01:00:50.113Z,9.75
2019-04-10T01:01:48.597Z,9.79
2019-04-10T01:02:49.169Z,9.76
2019-04-10T01:03:50.621Z,9.76
2019-04-10T01:04:48.842Z,9.76
2019-04-10T01:05:49.211Z,9.74
2019-04-10T01:06:48.524Z,9.76
2019-04-10T01:07:48.655Z,9.69
2019-04-10T01:08:48.908Z,9.65
2019-04-10T01:09:48.494Z,9.68
2019-04-10T01:10:48.501Z,9.71
2019-04-10T01:11:49.677Z,9.71
2019-04-10T01:12:48.465Z,9.65
2019-04-10T01:13:50.129Z,9.69
2019-04-10T01:14:48.449Z,9.69
2019-04-10T01:15:49.046Z,9.58
2019-04-10T01:16:49.363Z,9.60
2019-04-10T01:17:48.639Z,9.66
2019-04-10T01:18:48.398Z,9.64
2019-04-10T01:19:48.395Z,9.68
2019-04-10T01:20:48.368Z,9.58
2019-04-10T01:21:48.586Z,9.60
2019-04-10T01:22:48.344Z,9.58
2019-04-10T01:23:49.027Z,9.61
2019-04-10T01:24:48.339Z,9.60
2019-04-10T01:25:48.427Z,9.58
2019-04-10T01:26:48.300Z,9.61
2019-04-10T01:27:48.305Z,9.60
2019-04-10T01:28:49.210Z,9.58
2019-04-10T01:29:49.383Z,9.60
2019-04-10T01:30:48.681Z,9.57
2019-04-10T01:31:48.250Z,9.57
2019-04-10T01:32:48.234Z,9.61
2019-04-10T01:33:49.193Z,9.61
2019-04-10T01:34:48.236Z,9.57
2019-04-10T01:35:48.799Z,9.53
2019-04-10T01:36:48.198Z,9.58
2019-04-10T01:37:53.564Z,9.53
2019-04-10T01:38:49.515Z,9.51
2019-04-10T01:39:48.626Z,9.53
2019-04-10T01:40:48.146Z,9.57
2019-04-10T01:41:48.136Z,9.54
2019-04-10T01:42:59.973Z,9.51
2019-04-10T01:43:49.117Z,9.53
2019-04-10T01:44:49.034Z,9.53
2019-04-10T01:45:48.114Z,9.56
2019-04-10T01:46:48.661Z,9.48
2019-04-10T01:47:48.077Z,9.50
2019-04-10T01:48:48.938Z,9.51
2019-04-10T01:49:48.298Z,9.39
2019-04-10T01:50:48.056Z,9.53
2019-04-10T01:51:48.029Z,9.40
2019-04-10T01:52:48.928Z,9.40
2019-04-10T01:53:48.237Z,9.46
2019-04-10T01:54:49.186Z,9.40
2019-04-10T01:55:48.001Z,9.46
2019-04-10T01:56:48.007Z,9.48
2019-04-10T01:57:48.427Z,9.46
2019-04-10T01:58:47.960Z,9.39
2019-04-10T01:59:47.962Z,9.42
2019-04-10T02:00:48.242Z,9.40
2019-04-10T02:01:48.378Z,9.36
2019-04-10T02:02:47.910Z,9.46
2019-04-10T02:03:47.895Z,9.40
2019-04-10T02:04:49.798Z,9.38
2019-04-10T02:05:47.893Z,9.39
2019-04-10T02:06:47.864Z,9.43
2019-04-10T02:07:59.624Z,9.36
2019-04-10T02:08:49.705Z,9.42
2019-04-10T02:09:47.828Z,9.38
2019-04-10T02:10:48.143Z,9.42
2019-04-10T02:11:48.173Z,9.38
2019-04-10T02:12:47.796Z,9.48
2019-04-10T02:13:47.784Z,9.42
2019-04-10T02:14:48.655Z,9.40
2019-04-10T02:15:47.779Z,9.39
2019-04-10T02:16:47.759Z,9.35
2019-04-10T02:17:48.716Z,9.29
2019-04-10T02:18:47.932Z,9.33
2019-04-10T02:19:48.224Z,9.31
2019-04-10T02:20:47.728Z,9.32
2019-04-10T02:21:47.802Z,9.32
2019-04-10T02:22:47.970Z,9.35
2019-04-10T02:23:47.674Z,9.33
2019-04-10T02:24:47.665Z,9.32
2019-04-10T02:25:47.678Z,9.35
2019-04-10T02:26:47.738Z,9.32
2019-04-10T02:27:48.743Z,9.32
2019-04-10T02:28:47.619Z,9.26
2019-04-10T02:29:48.122Z,9.26
2019-04-10T02:30:47.963Z,9.26
2019-04-10T02:31:48.480Z,9.26
2019-04-10T02:32:48.653Z,9.14
2019-04-10T02:33:47.561Z,9.13
2019-04-10T02:34:48.941Z,9.13
2019-04-10T02:35:47.913Z,9.20
2019-04-10T02:36:48.860Z,9.17
2019-04-10T02:37:51.047Z,9.11
2019-04-10T02:38:59.483Z,9.15
2019-04-10T02:39:52.871Z,9.11
2019-04-10T02:40:50.041Z,9.14
2019-04-10T02:41:47.608Z,9.08
2019-04-10T02:42:48.852Z,9.11
2019-04-10T02:43:47.537Z,9.14
2019-04-10T02:44:48.357Z,9.11
2019-04-10T02:45:47.431Z,9.11
2019-04-10T02:46:47.589Z,9.13
2019-04-10T02:47:47.615Z,9.10
2019-04-10T02:48:47.711Z,9.08
2019-04-10T02:49:49.034Z,9.14
2019-04-10T02:50:47.375Z,9.10
2019-04-10T02:51:47.651Z,9.08
2019-04-10T02:52:48.819Z,9.04
2019-04-10T02:53:48.072Z,9.11
2019-04-10T02:54:47.332Z,8.94
2019-04-10T02:55:47.574Z,9.05
2019-04-10T02:56:47.916Z,8.99
2019-04-10T02:57:47.354Z,9.02
2019-04-10T02:58:49.087Z,9.04
2019-04-10T02:59:47.273Z,8.98
2019-04-10T03:00:48.808Z,9.05
2019-04-10T03:01:47.478Z,9.02
2019-04-10T03:02:47.916Z,9.04
2019-04-10T03:03:47.247Z,9.01
2019-04-10T03:04:48.923Z,8.99
2019-04-10T03:05:48.713Z,9.10
2019-04-10T03:06:47.250Z,9.10
2019-04-10T03:07:48.341Z,9.04
2019-04-10T03:09:05.994Z,8.95
2019-04-10T03:10:00.533Z,9.01
2019-04-10T03:10:53.361Z,8.99
2019-04-10T03:11:49.710Z,8.98
2019-04-10T03:12:48.446Z,8.87
2019-04-10T03:13:47.312Z,8.86
2019-04-10T03:14:47.627Z,8.92
2019-04-10T03:15:47.688Z,8.89
2019-04-10T03:16:47.907Z,8.83
2019-04-10T03:17:48.247Z,8.81
2019-04-10T03:18:47.324Z,8.79
2019-04-10T03:19:47.052Z,8.84
2019-04-10T03:20:47.045Z,8.86
2019-04-10T03:21:47.147Z,8.83
2019-04-10T03:22:47.247Z,8.79
2019-04-10T03:23:47.550Z,8.80
2019-04-10T03:24:46.997Z,8.81
2019-04-10T03:25:46.986Z,8.83
2019-04-10T03:26:47.986Z,8.74
2019-04-10T03:27:46.980Z,8.73
2019-04-10T03:28:47.193Z,8.79
2019-04-10T03:29:46.946Z,8.79
2019-04-10T03:30:48.782Z,8.71
2019-04-10T03:31:47.796Z,8.80
2019-04-10T03:32:51.668Z,8.73
2019-04-10T03:33:49.832Z,8.74
2019-04-10T03:34:48.398Z,8.79
2019-04-10T03:35:47.107Z,8.74
2019-04-10T03:36:47.586Z,8.76
2019-04-10T03:37:46.876Z,8.76
2019-04-10T03:38:55.462Z,8.76
2019-04-10T03:39:48.934Z,8.70
2019-04-10T03:40:47.922Z,8.73
2019-04-10T03:41:46.826Z,8.66
2019-04-10T03:42:47.429Z,8.77
2019-04-10T03:43:46.912Z,8.70
2019-04-10T03:44:47.150Z,8.66
2019-04-10T03:45:46.798Z,8.70
2019-04-10T03:46:46.978Z,8.71
2019-04-10T03:47:47.362Z,8.59
2019-04-10T03:48:47.349Z,8.66
2019-04-10T03:49:46.731Z,8.65
2019-04-10T03:50:46.710Z,8.70
2019-04-10T03:51:47.090Z,8.58
2019-04-10T03:52:46.695Z,8.63
2019-04-10T03:53:46.710Z,8.73
2019-04-10T03:54:46.664Z,8.58
2019-04-10T03:55:47.335Z,8.61
2019-04-10T03:56:47.848Z,8.55
2019-04-10T03:57:46.944Z,8.61
2019-04-10T03:58:47.503Z,8.55
2019-04-10T03:59:47.573Z,8.68
2019-04-10T04:00:46.759Z,8.66
2019-04-10T04:01:47.232Z,8.68
2019-04-10T04:02:46.579Z,8.66
2019-04-10T04:03:46.582Z,8.55
2019-04-10T04:04:46.562Z,8.58
2019-04-10T04:05:46.765Z,8.58
2019-04-10T04:06:46.533Z,8.62
2019-04-10T04:07:46.635Z,8.61
2019-04-10T04:08:46.531Z,8.61
2019-04-10T04:09:46.499Z,8.48
2019-04-10T04:10:46.488Z,8.55
2019-04-10T04:11:46.485Z,8.59
2019-04-10T04:12:46.764Z,8.56
2019-04-10T04:13:46.477Z,8.56
2019-04-10T04:14:46.466Z,8.50
2019-04-10T04:15:46.430Z,8.48
2019-04-10T04:16:47.062Z,8.45
2019-04-10T04:17:46.555Z,8.47
2019-04-10T04:18:46.419Z,8.43
2019-04-10T04:19:46.397Z,8.44
2019-04-10T04:20:47.242Z,8.45
2019-04-10T04:21:46.381Z,8.41
2019-04-10T04:22:47.452Z,8.48
2019-04-10T04:23:46.827Z,8.48
2019-04-10T04:24:46.369Z,8.44
2019-04-10T04:25:46.321Z,8.44
2019-04-10T04:26:46.567Z,8.43
2019-04-10T04:27:46.408Z,8.47
2019-04-10T04:28:46.311Z,8.41
2019-04-10T04:29:47.463Z,8.44
2019-04-10T04:30:46.265Z,8.34
2019-04-10T04:31:46.377Z,8.30
2019-04-10T04:32:46.244Z,8.30
2019-04-10T04:33:46.907Z,8.38
2019-04-10T04:34:47.368Z,8.34
2019-04-10T04:35:47.209Z,8.37
2019-04-10T04:36:48.780Z,8.34
2019-04-10T04:37:46.366Z,8.33
2019-04-10T04:38:46.178Z,8.30
2019-04-10T04:39:46.230Z,8.34
2019-04-10T04:40:46.372Z,8.33
2019-04-10T04:41:46.144Z,8.34
2019-04-10T04:42:47.072Z,8.29
2019-04-10T04:43:47.625Z,8.30
2019-04-10T04:44:46.141Z,8.19
2019-04-10T04:45:46.319Z,8.23
2019-04-10T04:46:46.093Z,8.25
2019-04-10T04:47:46.102Z,8.19
2019-04-10T04:48:46.068Z,8.22
2019-04-10T04:49:46.748Z,8.22
2019-04-10T04:50:46.052Z,8.20
2019-04-10T04:51:46.035Z,8.23
2019-04-10T04:52:46.030Z,8.11
2019-04-10T04:53:46.258Z,8.10
2019-04-10T04:54:46.019Z,8.16
2019-04-10T04:55:46.973Z,8.10
2019-04-10T04:56:46.353Z,8.11
2019-04-10T04:57:46.907Z,8.12
2019-04-10T04:58:45.958Z,7.98
2019-04-10T04:59:45.962Z,8.02
2019-04-10T05:00:46.016Z,7.97
2019-04-10T05:01:46.831Z,8.02
2019-04-10T05:02:46.948Z,8.00
2019-04-10T05:03:46.384Z,8.01
2019-04-10T05:04:45.912Z,8.07
2019-04-10T05:05:45.893Z,8.00
2019-04-10T05:06:45.895Z,8.01
2019-04-10T05:07:58.405Z,8.01
2019-04-10T05:08:46.860Z,8.02
2019-04-10T05:09:45.993Z,8.00
2019-04-10T05:10:45.846Z,8.02
2019-04-10T05:11:46.856Z,8.02
2019-04-10T05:12:45.803Z,8.02
2019-04-10T05:13:46.743Z,8.10
2019-04-10T05:14:46.182Z,7.97
2019-04-10T05:15:45.965Z,7.97
2019-04-10T05:16:45.771Z,7.98
2019-04-10T05:17:45.799Z,8.05
2019-04-10T05:18:45.739Z,8.02
2019-04-10T05:19:46.801Z,7.90
2019-04-10T05:20:49.697Z,8.01
2019-04-10T05:21:47.685Z,8.00
2019-04-10T05:22:45.717Z,8.00
2019-04-10T05:23:45.698Z,8.01
2019-04-10T05:24:46.697Z,7.98
2019-04-10T05:25:45.681Z,7.92
2019-04-10T05:26:45.677Z,8.02
2019-04-10T05:27:45.640Z,7.97
2019-04-10T05:28:46.459Z,8.01
2019-04-10T05:29:45.619Z,7.98
2019-04-10T05:30:45.624Z,7.98
2019-04-10T05:31:46.615Z,8.00
2019-04-10T05:32:45.591Z,8.02
2019-04-10T05:33:45.572Z,7.95
2019-04-10T05:34:46.638Z,7.95
2019-04-10T05:35:45.553Z,7.95
2019-04-10T05:36:45.561Z,7.95
2019-04-10T05:37:45.732Z,7.93
2019-04-10T05:38:46.007Z,7.95
2019-04-10T05:39:50.431Z,7.93
2019-04-10T05:40:46.503Z,8.01
2019-04-10T05:41:46.876Z,7.98
2019-04-10T05:42:45.476Z,8.02
2019-04-10T05:43:45.477Z,8.04
2019-04-10T05:44:45.465Z,8.00
2019-04-10T05:45:46.402Z,7.97
2019-04-10T05:46:46.534Z,8.05
2019-04-10T05:47:46.454Z,8.04
2019-04-10T05:48:46.210Z,8.07
2019-04-10T05:49:45.422Z,8.02
2019-04-10T05:50:54.885Z,8.08
2019-04-10T05:51:46.396Z,8.00
2019-04-10T05:52:45.385Z,8.01
2019-04-10T05:53:45.359Z,8.04
2019-04-10T05:54:45.346Z,8.04
2019-04-10T05:55:45.343Z,7.98
2019-04-10T05:56:45.325Z,8.01
2019-04-10T05:57:45.333Z,7.90
2019-04-10T05:58:45.302Z,8.02
2019-04-10T05:59:45.918Z,7.98
2019-04-10T06:00:45.290Z,7.98
2019-04-10T06:01:45.678Z,8.01
2019-04-10T06:02:45.288Z,7.97
2019-04-10T06:03:45.716Z,8.01
2019-04-10T06:04:45.473Z,7.97
2019-04-10T06:05:45.224Z,8.01
2019-04-10T06:06:46.409Z,7.97
2019-04-10T06:07:45.467Z,8.00
2019-04-10T06:08:45.196Z,8.05
2019-04-10T06:09:54.087Z,8.01
2019-04-10T06:10:46.171Z,8.01
2019-04-10T06:11:45.762Z,8.01
2019-04-10T06:12:45.172Z,8.02
2019-04-10T06:13:45.243Z,8.02
2019-04-10T06:14:46.271Z,8.01
2019-04-10T06:15:45.447Z,7.97
2019-04-10T06:16:45.139Z,7.97
2019-04-10T06:17:45.108Z,7.93
2019-04-10T06:18:45.211Z,8.02
2019-04-10T06:19:45.083Z,8.10
2019-04-10T06:20:45.324Z,8.02
2019-04-10T06:21:46.221Z,8.01
2019-04-10T06:22:45.520Z,8.04
2019-04-10T06:23:45.058Z,8.04
2019-04-10T06:24:45.018Z,8.05
2019-04-10T06:25:45.775Z,7.98
2019-04-10T06:26:45.872Z,8.02
2019-04-10T06:27:45.095Z,8.01
2019-04-10T06:28:44.972Z,7.93
2019-04-10T06:29:46.175Z,8.04
2019-04-10T06:30:44.967Z,8.08
2019-04-10T06:31:45.150Z,7.95
2019-04-10T06:32:45.465Z,8.04
2019-04-10T06:33:44.918Z,8.02
2019-04-10T06:34:45.982Z,8.11
2019-04-10T06:35:44.911Z,7.95
2019-04-10T06:36:45.922Z,8.04
2019-04-10T06:37:44.882Z,7.95
2019-04-10T06:38:45.385Z,7.97
2019-04-10T06:39:45.988Z,8.00
2019-04-10T06:40:46.021Z,7.98
2019-04-10T06:41:44.838Z,8.02
2019-04-10T06:42:50.287Z,8.02
2019-04-10T06:43:45.833Z,8.00
2019-04-10T06:44:45.983Z,8.08
2019-04-10T06:45:44.786Z,7.97
2019-04-10T06:46:44.786Z,8.10
2019-04-10T06:47:44.762Z,8.05
2019-04-10T06:48:44.769Z,8.04
2019-04-10T06:49:45.664Z,8.01
2019-04-10T06:50:45.892Z,7.98
2019-04-10T06:51:45.135Z,8.04
2019-04-10T06:52:45.049Z,8.01
2019-04-10T06:53:44.976Z,7.97
2019-04-10T06:54:44.897Z,8.00
2019-04-10T06:55:44.925Z,8.00
2019-04-10T06:56:45.351Z,8.00
2019-04-10T06:57:49.160Z,8.00
2019-04-10T06:58:45.663Z,8.07
2019-04-10T06:59:44.632Z,8.16
2019-04-10T07:00:48.609Z,8.08
2019-04-10T07:01:51.427Z,8.08
2019-04-10T07:02:46.285Z,8.01
2019-04-10T07:03:52.834Z,7.95
2019-04-10T07:04:52.420Z,8.00
2019-04-10T07:06:00.451Z,8.08
2019-04-10T07:06:57.098Z,7.95
2019-04-10T07:07:51.985Z,7.98
2019-04-10T07:08:47.946Z,7.93
2019-04-10T07:09:45.366Z,8.04
2019-04-10T07:10:52.061Z,8.02
2019-04-10T07:11:47.948Z,8.00
2019-04-10T07:12:45.762Z,7.98
2019-04-10T07:13:44.933Z,7.98
2019-04-10T07:14:48.296Z,7.98
2019-04-10T07:15:46.879Z,8.04
2019-04-10T07:16:44.460Z,8.01
2019-04-10T07:17:45.026Z,7.97
2019-04-10T07:18:47.788Z,8.15
2019-04-10T07:19:45.960Z,8.11
2019-04-10T07:20:44.407Z,7.98
2019-04-10T07:21:44.404Z,8.12
2019-04-10T07:22:46.578Z,8.08
2019-04-10T07:23:44.988Z,8.10
2019-04-10T07:24:44.376Z,8.15
2019-04-10T07:25:45.814Z,8.12
2019-04-10T07:26:46.581Z,8.10
2019-04-10T07:27:44.326Z,8.18
2019-04-10T07:28:46.420Z,8.20
2019-04-10T07:29:44.633Z,8.22
2019-04-10T07:30:44.294Z,8.20
2019-04-10T07:31:44.651Z,8.22
2019-04-10T07:32:47.238Z,8.22
2019-04-10T07:33:45.203Z,8.19
2019-04-10T07:34:44.536Z,8.28
2019-04-10T07:35:44.394Z,8.20
2019-04-10T07:36:45.481Z,8.30
2019-04-10T07:37:44.501Z,8.36
2019-04-10T07:38:44.210Z,8.33
2019-04-10T07:39:44.788Z,8.36
2019-04-10T07:40:44.982Z,8.33
2019-04-10T07:41:45.178Z,8.30
2019-04-10T07:42:44.223Z,8.30
2019-04-10T07:43:44.783Z,8.33
2019-04-10T07:44:44.158Z,8.33
2019-04-10T07:45:44.143Z,8.37
2019-04-10T07:46:44.118Z,8.37
2019-04-10T07:47:44.158Z,8.34
2019-04-10T07:48:44.095Z,8.41
2019-04-10T07:49:44.110Z,8.41
2019-04-10T07:50:45.554Z,8.44
2019-04-10T07:51:44.636Z,8.56
2019-04-10T07:52:44.052Z,8.58
2019-04-10T07:53:44.048Z,8.63
2019-04-10T07:54:44.940Z,8.53
2019-04-10T07:55:57.482Z,8.58
2019-04-10T07:56:45.012Z,8.58
2019-04-10T07:57:47.203Z,8.50
2019-04-10T07:58:44.061Z,8.53
2019-04-10T07:59:43.974Z,8.56
2019-04-10T08:00:44.886Z,8.66
2019-04-10T08:01:43.954Z,8.63
2019-04-10T08:02:43.945Z,8.59
2019-04-10T08:03:43.944Z,8.73
2019-04-10T08:04:43.916Z,8.65
2019-04-10T08:05:44.110Z,8.58
2019-04-10T08:06:44.716Z,8.76
2019-04-10T08:07:45.116Z,8.70
2019-04-10T08:08:44.794Z,8.80
2019-04-10T08:09:44.528Z,8.80
2019-04-10T08:10:45.080Z,8.86
2019-04-10T08:11:44.813Z,8.86
2019-04-10T08:12:49.042Z,8.91
2019-04-10T08:13:44.921Z,9.01
2019-04-10T08:14:44.273Z,8.99
2019-04-10T08:15:43.796Z,8.95
2019-04-10T08:16:43.807Z,9.10
2019-04-10T08:17:44.434Z,9.04
2019-04-10T08:18:43.761Z,9.10
2019-04-10T08:19:43.749Z,9.11
2019-04-10T08:20:43.741Z,9.14
2019-04-10T08:21:44.376Z,9.20
2019-04-10T08:22:44.802Z,9.21
2019-04-10T08:23:44.597Z,9.14
2019-04-10T08:24:45.854Z,9.24
2019-04-10T08:25:43.684Z,9.26
2019-04-10T08:26:43.717Z,9.29
2019-04-10T08:27:43.838Z,9.38
2019-04-10T08:28:43.655Z,9.33
2019-04-10T08:29:43.651Z,9.28
2019-04-10T08:30:43.930Z,9.32
2019-04-10T08:31:44.256Z,9.48
2019-04-10T08:32:54.726Z,9.42
2019-04-10T08:33:44.595Z,9.38
2019-04-10T08:34:44.277Z,9.40
2019-04-10T08:35:43.578Z,9.48
2019-04-10T08:36:43.671Z,9.54
2019-04-10T08:37:43.625Z,9.51
2019-04-10T08:38:43.540Z,9.51
2019-04-10T08:39:46.518Z,9.57
2019-04-10T08:40:43.910Z,9.60
2019-04-10T08:41:43.780Z,9.68
2019-04-10T08:42:46.034Z,9.66
2019-04-10T08:43:43.490Z,9.58
2019-04-10T08:44:44.481Z,9.71
2019-04-10T08:45:48.457Z,9.61
2019-04-10T08:46:44.449Z,9.76
2019-04-10T08:47:44.246Z,9.72
2019-04-10T08:48:43.488Z,9.84
2019-04-10T08:49:43.418Z,9.76
2019-04-10T08:50:44.015Z,9.84
2019-04-10T08:51:43.666Z,9.89
2019-04-10T08:52:44.430Z,9.76
2019-04-10T08:53:44.530Z,9.89
2019-04-10T08:54:43.368Z,10.01
2019-04-10T08:55:43.364Z,9.91
2019-04-10T08:56:43.343Z,10.01
2019-04-10T08:57:43.818Z,10.02
2019-04-10T08:58:43.381Z,10.02
2019-04-10T08:59:44.570Z,10.09
2019-04-10T09:00:43.306Z,10.15
2019-04-10T09:01:43.288Z,10.11
2019-04-10T09:02:44.383Z,10.25
2019-04-10T09:03:43.441Z,10.22
2019-04-10T09:04:43.260Z,10.27
2019-04-10T09:05:43.331Z,10.22
2019-04-10T09:06:43.970Z,10.25
2019-04-10T09:07:44.219Z,10.38
2019-04-10T09:08:43.607Z,10.30
2019-04-10T09:09:43.201Z,10.34
2019-04-10T09:10:43.191Z,10.38
2019-04-10T09:11:43.177Z,10.41
2019-04-10T09:12:43.165Z,10.48
2019-04-10T09:13:44.333Z,10.51
2019-04-10T09:14:43.451Z,10.45
2019-04-10T09:15:43.140Z,10.48
2019-04-10T09:16:43.191Z,10.45
2019-04-10T09:17:43.834Z,10.52
2019-04-10T09:18:43.294Z,10.53
2019-04-10T09:19:43.101Z,10.51
2019-04-10T09:20:43.115Z,10.55
2019-04-10T09:21:43.713Z,10.55
2019-04-10T09:23:07.517Z,10.56
2019-04-10T09:23:50.479Z,10.51
2019-04-10T09:24:44.632Z,10.61
2019-04-10T09:25:43.703Z,10.66
2019-04-10T09:26:43.093Z,10.68
2019-04-10T09:27:44.178Z,10.68
2019-04-10T09:28:43.013Z,10.60
2019-04-10T09:29:43.001Z,10.60
2019-04-10T09:30:43.013Z,10.64
2019-04-10T09:31:43.941Z,10.70
2019-04-10T09:32:42.952Z,10.64
2019-04-10T09:33:43.242Z,10.74
2019-04-10T09:34:45.539Z,10.70
2019-04-10T09:35:42.941Z,10.71
2019-04-10T09:36:43.736Z,10.74
2019-04-10T09:37:43.052Z,10.70
2019-04-10T09:38:43.982Z,10.76
2019-04-10T09:39:43.426Z,10.71
2019-04-10T09:40:42.932Z,10.73
2019-04-10T09:41:43.915Z,10.89
2019-04-10T09:42:43.809Z,10.86
2019-04-10T09:43:42.856Z,10.89
2019-04-10T09:44:44.648Z,10.94
2019-04-10T09:45:43.732Z,10.97
2019-04-10T09:46:42.933Z,11.04
2019-04-10T09:47:43.838Z,11.15
2019-04-10T09:48:42.769Z,11.06
2019-04-10T09:49:46.161Z,11.17
2019-04-10T09:50:43.797Z,11.14
2019-04-10T09:51:42.757Z,11.29
2019-04-10T09:52:43.925Z,11.28
2019-04-10T09:53:43.351Z,11.29
2019-04-10T09:54:42.746Z,11.27
2019-04-10T09:55:42.710Z,11.27
2019-04-10T09:56:42.782Z,11.43
2019-04-10T09:57:47.574Z,11.43
2019-04-10T09:58:42.769Z,11.42
2019-04-10T09:59:42.799Z,11.39
2019-04-10T10:00:43.665Z,11.43
2019-04-10T10:01:42.632Z,11.43
2019-04-10T10:02:42.620Z,11.46
2019-04-10T10:03:42.614Z,11.54
2019-04-10T10:04:43.791Z,11.51
2019-04-10T10:05:42.641Z,11.60
2019-04-10T10:06:43.235Z,11.61
2019-04-10T10:07:43.067Z,11.55
2019-04-10T10:08:43.678Z,11.55
2019-04-10T10:09:43.115Z,11.55
2019-04-10T10:10:42.548Z,11.72
2019-04-10T10:11:42.814Z,11.65
2019-04-10T10:12:42.940Z,11.65
2019-04-10T10:13:42.591Z,11.62
2019-04-10T10:14:42.500Z,11.67
2019-04-10T10:15:43.204Z,11.69
2019-04-10T10:16:42.477Z,11.80
2019-04-10T10:17:42.488Z,11.85
2019-04-10T10:18:43.582Z,11.83
2019-04-10T10:19:42.672Z,11.91
2019-04-10T10:20:42.441Z,12.10
2019-04-10T10:21:42.782Z,12.24
2019-04-10T10:22:42.416Z,12.21
2019-04-10T10:23:43.198Z,12.47
2019-04-10T10:24:42.601Z,12.67
2019-04-10T10:25:43.558Z,12.70
2019-04-10T10:26:44.577Z,12.89
2019-04-10T10:27:42.660Z,13.04
2019-04-10T10:28:42.952Z,13.25
2019-04-10T10:29:42.345Z,13.33
2019-04-10T10:30:42.325Z,13.41
2019-04-10T10:31:42.411Z,13.55
2019-04-10T10:32:43.509Z,13.70
2019-04-10T10:33:42.284Z,13.87
2019-04-10T10:34:42.794Z,13.89
2019-04-10T10:35:43.176Z,13.92
2019-04-10T10:36:46.197Z,13.96
2019-04-10T10:37:43.251Z,14.04
2019-04-10T10:38:43.279Z,14.18
2019-04-10T10:39:43.078Z,14.24
2019-04-10T10:40:42.234Z,14.27
2019-04-10T10:41:42.631Z,14.33
2019-04-10T10:42:42.184Z,14.28
2019-04-10T10:43:42.616Z,14.40
2019-04-10T10:44:42.495Z,14.40
2019-04-10T10:45:42.885Z,14.40
2019-04-10T10:46:42.149Z,14.55
2019-04-10T10:47:42.199Z,14.58
2019-04-10T10:48:42.118Z,14.72
2019-04-10T10:49:42.366Z,14.84
2019-04-10T10:50:42.093Z,14.91
2019-04-10T10:51:42.613Z,14.98
2019-04-10T10:52:42.075Z,15.07
2019-04-10T10:53:42.051Z,15.02
2019-04-10T10:54:43.149Z,15.10
2019-04-10T10:55:42.104Z,15.17
2019-04-10T10:56:42.584Z,15.28
2019-04-10T10:57:42.027Z,15.43
2019-04-10T10:58:42.018Z,15.36
2019-04-10T10:59:42.003Z,15.46
2019-04-10T11:00:43.069Z,15.53
2019-04-10T11:01:42.225Z,15.60
2019-04-10T11:02:41.969Z,15.78
2019-04-10T11:03:42.533Z,15.78
2019-04-10T11:04:41.955Z,15.76
2019-04-10T11:05:42.318Z,15.82
2019-04-10T11:06:51.762Z,15.75
2019-04-10T11:07:43.014Z,15.80
2019-04-10T11:08:41.912Z,15.83
2019-04-10T11:09:41.985Z,15.83
2019-04-10T11:10:42.760Z,15.84
2019-04-10T11:11:41.863Z,15.83
2019-04-10T11:12:42.371Z,15.83
2019-04-10T11:13:43.141Z,15.84
2019-04-10T11:14:41.849Z,15.82
2019-04-10T11:15:45.405Z,15.89
2019-04-10T11:16:41.869Z,15.82
2019-04-10T11:17:42.159Z,15.82
2019-04-10T11:18:42.523Z,15.87
2019-04-10T11:19:41.785Z,15.75
2019-04-10T11:20:41.863Z,15.74
2019-04-10T11:21:42.947Z,15.78
2019-04-10T11:22:42.342Z,15.72
2019-04-10T11:23:42.431Z,15.69
2019-04-10T11:24:43.412Z,15.75
2019-04-10T11:25:41.786Z,15.75
2019-04-10T11:26:42.651Z,15.80
2019-04-10T11:27:42.106Z,15.92
2019-04-10T11:28:43.240Z,15.96
2019-04-10T11:29:42.676Z,16.00
2019-04-10T11:30:42.570Z,15.97
2019-04-10T11:31:41.764Z,16.02
2019-04-10T11:32:42.244Z,16.01
2019-04-10T11:33:41.619Z,16.05
2019-04-10T11:34:42.650Z,16.08
2019-04-10T11:35:41.589Z,16.20
2019-04-10T11:36:42.563Z,16.15
2019-04-10T11:37:44.775Z,16.15
2019-04-10T11:38:44.946Z,16.28
2019-04-10T11:39:43.965Z,16.27
2019-04-10T11:40:41.988Z,16.38
2019-04-10T11:41:43.271Z,16.42
2019-04-10T11:42:42.868Z,16.35
2019-04-10T11:43:41.731Z,16.52
2019-04-10T11:44:44.837Z,16.48
2019-04-10T11:45:45.619Z,16.57
2019-04-10T11:46:43.840Z,16.57
2019-04-10T11:47:42.568Z,16.50
2019-04-10T11:48:44.692Z,16.53
2019-04-10T11:50:44.046Z,16.61
2019-04-10T11:51:41.413Z,16.63
2019-04-10T11:52:49.015Z,16.70
2019-04-10T11:53:47.223Z,16.66
2019-04-10T11:54:44.898Z,16.64
2019-04-10T11:56:43.066Z,16.76
2019-04-10T11:57:42.116Z,16.70
2019-04-10T11:58:49.467Z,16.82
2019-04-10T11:59:44.759Z,16.61
2019-04-10T12:00:50.562Z,16.71
2019-04-10T12:01:43.940Z,16.78
2019-04-10T12:02:44.989Z,16.78
2019-04-10T12:03:48.109Z,16.76
2019-04-10T12:04:49.220Z,16.83
2019-04-10T12:05:42.415Z,16.81
2019-04-10T12:06:43.094Z,16.78
2019-04-10T12:08:12.207Z,16.83
2019-04-10T12:09:04.483Z,16.88
2019-04-10T12:11:42.191Z,16.91
2019-04-10T12:12:41.709Z,16.89
2019-04-10T12:13:41.198Z,16.89
2019-04-10T12:14:41.155Z,16.86
2019-04-10T12:15:41.154Z,16.86
2019-04-10T12:16:41.135Z,16.83
2019-04-10T12:17:42.987Z,16.82
2019-04-10T12:18:41.173Z,16.86
2019-04-10T12:19:41.128Z,16.83
2019-04-10T12:20:41.125Z,16.85
2019-04-10T12:21:42.049Z,16.85
2019-04-10T12:22:41.095Z,16.81
2019-04-10T12:23:41.058Z,16.63
2019-04-10T12:24:41.070Z,16.70
2019-04-10T12:25:41.032Z,16.70
2019-04-10T12:26:42.253Z,16.61
2019-04-10T12:27:41.199Z,16.58
2019-04-10T12:28:42.228Z,16.53
2019-04-10T12:29:41.024Z,16.50
2019-04-10T12:30:41.699Z,16.49
2019-04-10T12:31:41.923Z,16.48
2019-04-10T12:32:41.094Z,16.61
2019-04-10T12:33:40.982Z,16.61
2019-04-10T12:34:40.940Z,16.63
2019-04-10T12:35:40.945Z,16.63
2019-04-10T12:36:40.917Z,16.60
2019-04-10T12:37:41.255Z,16.58
2019-04-10T12:38:41.582Z,16.60
2019-04-10T12:39:41.248Z,16.57
2019-04-10T12:40:40.901Z,16.60
2019-04-10T12:41:41.610Z,16.66
2019-04-10T12:42:40.861Z,16.64
2019-04-10T12:43:41.137Z,16.66
2019-04-10T12:44:40.955Z,16.61
2019-04-10T12:45:40.848Z,16.57
2019-04-10T12:46:41.510Z,16.50
2019-04-10T12:47:41.709Z,16.49
2019-04-10T12:48:41.100Z,16.45
2019-04-10T12:49:41.455Z,16.38
2019-04-10T12:50:41.285Z,16.42
2019-04-10T12:51:41.543Z,16.39
2019-04-10T12:52:40.987Z,16.33
2019-04-10T12:53:40.736Z,16.31
2019-04-10T12:54:40.830Z,16.21
2019-04-10T12:55:41.797Z,16.20
2019-04-10T12:56:40.697Z,16.07
2019-04-10T12:57:41.335Z,16.00
2019-04-10T12:58:40.704Z,15.96
2019-04-10T12:59:41.740Z,16.00
2019-04-10T13:00:42.536Z,15.90
2019-04-10T13:01:40.838Z,15.89
2019-04-10T13:02:40.793Z,15.80
2019-04-10T13:03:41.133Z,15.80
2019-04-10T13:04:40.782Z,15.82
2019-04-10T13:05:41.160Z,15.75
2019-04-10T13:06:40.584Z,15.72
2019-04-10T13:07:40.584Z,15.68
2019-04-10T13:08:55.884Z,15.69
2019-04-10T13:09:42.169Z,15.69
2019-04-10T13:10:40.560Z,15.74
2019-04-10T13:11:40.700Z,15.80
2019-04-10T13:12:41.535Z,15.80
2019-04-10T13:13:40.509Z,15.68